Latest Weather Observations for Normanton

IDQ60801

Issued at 11:35 pm EST Thursday 27 November 2014 (issued every 30 minutes, with the page automatically refreshed every 10 minutes)

About weather observations | Map of weather stations | Latest weather observations for QLD | Other Formats
Station Details ID: 029063 Name: NORMANTON AIRPORT Lat: -17.69 Lon: 141.07 Height: 18.42 m
Data from the previous 72 hours. | See also: Recent months at Normanton
Date/Time
EST
Temp
°C
App
Temp
°C
Dew
Point
Rel
Hum
%
Delta-T
°C
Wind Press
QNH
hPa
Press
MSL
hPa
Rain
since 9 am
mm
Dir
 
Spd
km/h
Gust
km/h
Spd
kts
Gust
kts
27/11:30pm 28.0 30.3 22.0 70 4.0 WSW 13 17 7 9 1008.6 - 0.0
27/11:00pm 28.2 30.9 22.2 70 4.1 SW 11 15 6 8 1008.6 - 0.0
27/10:30pm 28.6 31.0 22.3 68 4.3 W 13 17 7 9 1009.0 - 0.0
27/10:00pm 29.3 31.9 22.0 64 4.9 SW 11 17 6 9 1009.1 - 0.0
27/09:30pm 30.0 31.6 21.4 60 5.8 W 15 20 8 11 1008.9 - 0.0
27/09:00pm 30.2 31.2 21.0 58 6.2 W 17 24 9 13 1008.5 1008.2 0.0
27/08:30pm 30.2 31.0 20.7 56 6.3 W 17 22 9 12 1008.2 - 0.0
27/08:00pm 30.3 31.4 20.5 55 6.5 W 15 19 8 10 1008.0 - 0.0
27/07:30pm 30.7 31.1 20.6 54 6.7 WNW 19 26 10 14 1007.6 - 0.0
27/07:00pm 31.3 30.4 19.9 50 7.5 W 24 32 13 17 1007.6 - 0.0
27/06:30pm 31.8 30.9 19.1 47 8.3 W 22 30 12 16 1007.3 - 0.0
27/06:00pm 32.5 30.7 18.7 44 9.0 WNW 26 30 14 16 1007.0 1006.8 0.0
27/05:30pm 33.3 31.1 18.6 41 9.6 WNW 28 35 15 19 1006.9 - 0.0
27/05:00pm 34.6 33.1 19.4 40 10.0 NW 26 33 14 18 1006.5 - 0.0
27/04:30pm 35.7 35.4 20.4 40 10.3 NW 22 33 12 18 1006.4 - 0.0
27/04:00pm 35.6 35.5 19.9 39 10.5 NW 20 30 11 16 1006.2 - 0.0
27/03:30pm 35.6 36.8 19.1 38 10.9 NW 11 20 6 11 1006.3 - 0.0
27/03:00pm 35.7 36.4 19.6 39 10.7 NNW 15 28 8 15 1007.0 1006.8 0.0
27/02:30pm 35.1 34.8 19.5 40 10.3 N 20 30 11 16 1007.2 - 0.0
27/02:00pm 35.2 35.1 18.7 37 10.8 NW 17 33 9 18 1007.6 - 0.0
27/01:30pm 35.2 34.4 17.0 34 11.7 N 17 24 9 13 1008.1 - 0.0
27/01:00pm 36.0 35.8 17.7 34 11.9 N 15 20 8 11 1008.5 - 0.0
27/12:30pm 35.4 34.0 17.1 33 11.8 WNW 20 28 11 15 1009.1 - 0.0
27/12:00pm 34.4 34.4 17.2 36 11.0 N 13 24 7 13 1009.5 1009.4 0.0
27/11:30am 34.6 34.3 17.3 35 11.1 N 15 24 8 13 1009.8 - 0.0
27/11:00am 34.8 33.8 17.5 35 11.2 N 19 26 10 14 1010.1 - 0.0
27/10:30am 34.0 32.9 17.2 36 10.8 N 19 28 10 15 1010.3 - 0.0
27/10:00am 32.9 31.9 17.5 39 9.9 N 19 28 10 15 1010.6 - 0.0
27/09:30am 33.0 33.6 19.5 45 8.9 NNE 15 26 8 14 1010.9 - 0.0
27/09:00am 31.3 31.6 19.6 49 7.7 NNE 17 28 9 15 1011.2 1011.1 0.0
27/08:30am 31.1 31.3 20.1 52 7.3 NNE 19 30 10 16 1011.2 - 0.0
27/08:00am 30.4 30.8 20.6 55 6.5 N 19 30 10 16 1011.0 - 0.0
27/07:30am 29.9 30.3 20.7 57 6.1 N 19 28 10 15 1010.5 - 0.0
27/07:00am 28.8 30.3 21.3 64 5.0 NNE 15 22 8 12 1010.2 - 0.0
27/06:30am 28.1 29.9 21.9 69 4.2 NNE 15 22 8 12 1009.8 - 0.0
27/06:00am 28.0 30.6 22.7 73 3.6 NNE 13 19 7 10 1009.5 1009.1 0.0
27/05:30am 28.0 31.5 23.6 77 3.0 N 11 17 6 9 1009.1 - 0.0
27/05:00am 27.9 31.0 24.1 80 2.6 N 15 20 8 11 1008.8 - 0.0
27/04:30am 27.6 31.7 24.6 84 2.1 N 11 17 6 9 1008.6 - 0.0
27/04:00am 27.3 31.4 24.6 85 1.9 NNE 11 20 6 11 1008.5 - 0.0
27/03:30am 27.2 31.9 24.3 84 2.0 ENE 7 9 4 5 1008.0 - 0.0
27/03:00am 27.3 31.7 24.4 84 2.0 SE 9 15 5 8 1007.7 1007.5 0.0
27/02:30am 27.3 31.7 24.4 84 2.0 S 9 13 5 7 1007.7 - 0.0
27/02:00am 27.7 32.5 24.5 83 2.2 SW 7 9 4 5 1007.7 - 0.0
27/01:30am 27.6 33.1 24.0 81 2.5 SW 2 6 1 3 1007.8 - 0.0
27/01:00am 27.8 32.4 24.2 81 2.5 SW 7 9 4 5 1008.0 - 0.0
27/12:30am 28.1 34.1 24.3 80 2.6 CALM 0 0 0 0 1008.2 - 0.0
27/12:00am 27.5 33.2 23.7 80 2.6 CALM 0 6 0 3 1008.4 1008.2 0.0
 
Date/Time
EST
Temp
°C
App
Temp
°C
Dew
Point
Rel
Hum
%
Delta-T
°C
Wind Press
QNH
hPa
Press
MSL
hPa
Rain
since 9 am
mm
Dir
 
Spd
km/h
Gust
km/h
Spd
kts
Gust
kts
26/11:30pm 28.3 34.2 24.1 78 2.9 CALM 0 6 0 3 1008.4 - 0.0
26/11:00pm 28.3 32.9 24.1 78 2.9 WSW 7 9 4 5 1008.4 - 0.0
26/10:30pm 28.5 32.6 23.9 76 3.2 W 9 13 5 7 1008.4 - 0.0
26/10:00pm 28.7 32.7 23.8 75 3.4 WSW 9 11 5 6 1008.2 - 0.0
26/09:30pm 29.0 33.0 23.7 73 3.7 W 9 11 5 6 1008.0 - 0.0
26/09:00pm 29.3 32.4 23.5 71 4.0 W 13 19 7 10 1007.9 1007.6 0.0
26/08:30pm 29.5 31.9 23.0 68 4.4 W 15 20 8 11 1007.8 - 0.0
26/08:00pm 30.0 31.7 22.4 63 5.2 WNW 17 24 9 13 1007.7 - 0.0
26/07:30pm 30.6 32.2 21.4 58 6.2 WNW 15 19 8 10 1007.4 - 0.0
26/07:00pm 31.1 31.2 20.4 53 7.1 WNW 20 26 11 14 1007.0 - 0.0
26/06:30pm 31.5 31.6 21.1 54 7.0 NW 22 28 12 15 1006.6 - 0.0
26/06:00pm 33.0 31.9 20.2 47 8.5 NW 26 33 14 18 1005.9 1005.6 0.0
26/05:30pm 33.6 32.6 19.7 44 9.2 NW 24 32 13 17 1005.7 - 0.0
26/05:00pm 34.9 33.5 19.7 41 10.1 NW 26 33 14 18 1005.5 - 0.0
26/04:30pm 35.1 34.0 19.5 40 10.3 NW 24 35 13 19 1005.3 - 0.0
26/04:00pm 35.6 33.4 19.5 38 10.7 NW 30 37 16 20 1005.4 - 0.0
26/03:30pm 35.7 34.3 19.6 39 10.7 NW 26 35 14 19 1005.7 - 0.0
26/03:00pm 35.9 34.5 18.0 34 11.7 NNW 22 28 12 15 1005.8 1005.7 0.0
26/02:30pm 36.2 34.7 17.8 33 12.0 NNW 22 32 12 17 1005.9 - 0.0
26/02:00pm 37.4 36.0 17.9 31 12.7 NNW 22 30 12 16 1006.2 - 0.0
26/01:30pm 37.3 35.9 13.3 23 14.7 NE 13 28 7 15 1006.7 - 0.0
26/01:00pm 38.2 37.6 13.4 23 15.3 ESE 9 19 5 10 1007.2 - 0.0
26/12:30pm 36.8 34.1 12.9 24 14.5 NE 19 28 10 15 1007.7 - 0.0
26/12:00pm 36.5 35.5 14.5 27 13.7 N 13 22 7 12 1008.1 1007.9 0.0
26/11:30am 35.9 35.1 15.1 29 13.0 ENE 13 28 7 15 1008.6 - 0.0
26/11:00am 34.2 33.9 16.5 34 11.2 NE 13 22 7 12 1009.1 - 0.0
26/10:30am 33.8 33.3 17.9 38 10.3 NNE 17 32 9 17 1009.3 - 0.0
26/10:00am 33.9 34.2 19.6 43 9.5 N 17 26 9 14 1009.5 - 0.0
26/09:30am 32.4 32.3 20.0 48 8.2 N 20 28 11 15 1009.6 - 0.0
26/09:00am 31.6 31.6 20.2 50 7.6 NNE 20 32 11 17 1009.7 1009.4 0.0
26/08:30am 31.5 32.0 21.1 54 7.0 N 20 32 11 17 1009.5 - 0.0
26/08:00am 30.3 30.6 20.8 56 6.3 N 20 33 11 18 1009.2 - 0.0
26/07:30am 29.7 30.5 21.4 61 5.6 NNE 19 32 10 17 1009.2 - 0.0
26/07:00am 28.9 30.0 21.9 66 4.7 NNE 19 26 10 14 1008.8 - 0.0
26/06:30am 28.3 30.1 21.8 68 4.4 NNE 15 22 8 12 1008.5 - 0.0
26/06:00am 27.9 30.5 21.9 70 4.0 NNE 11 17 6 9 1008.2 1007.9 0.0
26/05:30am 28.0 30.4 22.2 70 3.9 NNE 13 20 7 11 1007.8 - 0.0
26/05:00am 28.0 30.6 22.7 73 3.6 NNE 13 19 7 10 1007.6 - 0.0
26/04:30am 27.9 30.6 22.8 74 3.5 NNE 13 19 7 10 1007.6 - 0.0
26/04:00am 27.8 30.8 22.7 74 3.5 NE 11 17 6 9 1007.6 - 0.0
26/03:30am 28.0 31.4 22.7 73 3.6 NNE 9 15 5 8 1007.6 - 0.0
26/03:00am 28.2 31.4 22.4 71 3.9 ENE 9 17 5 9 1007.8 1007.6 0.0
26/02:30am 28.3 30.8 22.5 71 3.9 ENE 13 24 7 13 1007.8 - 0.0
26/02:00am 28.0 30.9 21.8 69 4.2 SW 9 13 5 7 1006.3 - 0.0
26/01:30am 28.3 30.6 22.1 69 4.2 SW 13 17 7 9 1006.4 - 0.0
26/01:00am 28.5 30.8 22.0 68 4.4 SW 13 19 7 10 1006.6 - 0.0
26/12:30am 28.7 31.1 22.2 68 4.4 WSW 13 17 7 9 1007.1 - 0.0
26/12:00am 29.1 31.1 22.3 66 4.6 WSW 15 20 8 11 1007.5 1007.4 0.0
 
Date/Time
EST
Temp
°C
App
Temp
°C
Dew
Point
Rel
Hum
%
Delta-T
°C
Wind Press
QNH
hPa
Press
MSL
hPa
Rain
since 9 am
mm
Dir
 
Spd
km/h
Gust
km/h
Spd
kts
Gust
kts
25/11:30pm 29.1 31.5 22.3 66 4.6 WSW 13 19 7 10 1007.8 - 0.0
25/11:00pm 29.3 31.7 22.3 66 4.7 W 13 19 7 10 1007.9 - 0.0
25/10:30pm 29.5 32.1 22.0 64 5.1 W 11 17 6 9 1007.9 - 0.0
25/10:00pm 29.6 32.4 21.5 61 5.4 W 9 13 5 7 1007.8 - 0.0
25/09:30pm 29.8 32.0 21.2 60 5.8 WSW 11 15 6 8 1007.3 - 0.0
25/09:00pm 30.1 32.2 20.9 57 6.1 W 11 15 6 8 1007.2 1007.1 0.0
25/08:30pm 30.3 31.8 20.5 55 6.5 W 13 20 7 11 1007.0 - 0.0
25/08:00pm 30.5 31.7 20.7 55 6.5 WNW 15 19 8 10 1006.9 - 0.0
25/07:30pm 30.7 31.9 20.6 54 6.7 WNW 15 22 8 12 1006.7 - 0.0
25/07:00pm 30.8 31.1 20.4 54 6.9 W 19 24 10 13 1006.3 - 0.0
25/06:30pm 31.1 30.9 19.8 51 7.4 W 20 30 11 16 1006.5 - 0.0
25/06:00pm 31.9 30.6 19.8 48 8.0 NW 26 33 14 18 1006.1 1005.8 0.0
25/05:30pm 32.7 30.2 18.8 43 9.1 NW 30 37 16 20 1006.1 - 0.0
25/05:00pm 34.3 32.5 18.8 40 10.2 NW 26 32 14 17 1005.7 - 0.0
25/04:30pm 34.9 33.9 18.9 39 10.5 NW 22 30 12 16 1005.5 - 0.0
25/04:00pm 35.8 34.6 19.3 38 10.9 NNW 24 37 13 20 1005.6 - 0.0
25/03:30pm 34.5 33.7 19.3 40 10.0 NW 22 32 12 17 1006.1 - 0.0
25/03:00pm 36.9 35.8 19.4 36 11.7 N 24 33 13 18 1006.3 1006.1 0.0
25/02:30pm 36.1 34.8 19.1 36 11.2 NNW 24 32 13 17 1006.9 - 0.0
25/02:00pm 36.0 36.2 19.4 37 11.0 NW 17 28 9 15 1007.3 - 0.0
25/01:30pm 36.0 35.1 19.0 36 11.2 NW 22 33 12 18 1007.7 - 0.0
25/01:00pm 36.3 36.6 19.7 37 11.1 NNW 17 28 9 15 1007.8 - 0.0
25/12:30pm 35.3 33.9 18.8 37 10.8 N 24 37 13 20 1008.2 - 0.0
25/12:00pm 36.6 35.9 18.6 34 11.9 NNW 20 39 11 21 1008.7 1008.6 0.0
25/11:30am 34.5 33.4 17.7 37 10.9 NNW 20 35 11 19 1009.4 - 0.0
25/11:00am 34.7 33.3 17.9 37 10.9 NNW 22 32 12 17 1009.8 - 0.0
25/10:30am 33.8 32.8 17.5 38 10.5 N 19 30 10 16 1010.0 - 0.0
25/10:00am 33.6 32.1 17.7 38 10.2 N 22 28 12 15 1010.4 - 0.0
25/09:30am 33.0 32.2 18.4 42 9.5 N 20 30 11 16 1010.6 - 0.0
25/09:00am 32.3 31.7 18.8 44 8.8 N 20 30 11 16 1010.6 1010.5 0.2
25/08:30am 31.2 30.7 19.9 51 7.5 N 22 30 12 16 1010.8 - 0.2
25/08:00am 30.7 30.4 20.3 53 6.9 N 22 32 12 17 1010.6 - 0.2
25/07:30am 29.7 30.2 20.8 58 5.9 N 19 30 10 16 1010.3 - 0.2
25/07:00am 28.5 29.4 21.5 66 4.7 N 19 24 10 13 1010.1 - 0.2
25/06:30am 28.0 29.2 21.5 67 4.3 N 17 24 9 13 1009.9 - 0.2
25/06:00am 27.9 29.3 21.9 70 4.0 N 17 24 9 13 1009.4 1009.2 0.2
25/05:30am 28.1 29.5 21.9 69 4.2 N 17 26 9 14 1009.0 - 0.2
25/05:00am 28.3 30.6 22.1 69 4.2 NNE 13 20 7 11 1008.9 - 0.2
25/04:30am 28.4 30.9 22.4 70 4.1 NNE 13 19 7 10 1008.9 - 0.2
25/04:00am 28.4 31.1 22.9 72 3.7 NE 13 20 7 11 1008.8 - 0.2
25/03:30am 28.3 32.0 23.2 74 3.5 ENE 9 13 5 7 1008.6 - 0.2
25/03:00am 28.2 31.6 23.3 75 3.4 ENE 11 17 6 9 1008.6 1008.5 0.2
25/02:30am 28.1 31.2 23.5 76 3.2 ENE 13 22 7 12 1008.8 - 0.2
25/02:00am 28.1 32.3 23.5 76 3.2 SSE 7 9 4 5 1007.9 - 0.2
25/01:30am 28.4 31.9 23.5 75 3.4 SW 11 15 6 8 1007.6 - 0.2
25/01:00am 28.6 31.7 23.5 74 3.5 WSW 13 19 7 10 1007.8 - 0.2
25/12:30am 28.6 31.4 23.7 75 3.4 SW 15 20 8 11 1008.5 - 0.2
25/12:00am 28.7 32.2 23.6 74 3.5 W 11 15 6 8 1008.6 1008.5 0.2

Other Formats:

Comma delimited format used in spreadsheet applications
http://www.bom.gov.au/fwo/IDQ60801/IDQ60801.94266.axf

JavaScript Object Notation format (JSON) in row-major order
http://www.bom.gov.au/fwo/IDQ60801/IDQ60801.94266.json